createdAt,value
2023-03-26T00:01:33.586Z,96.70
2023-03-26T00:04:01.303Z,96.80
2023-03-26T00:06:31.829Z,96.80
2023-03-26T00:08:58.997Z,96.90
2023-03-26T00:11:28.832Z,96.80
2023-03-26T00:13:57.729Z,96.90
2023-03-26T00:16:30.462Z,96.80
2023-03-26T00:18:58.685Z,96.80
2023-03-26T00:21:29.067Z,96.80
2023-03-26T00:24:04.690Z,96.90
2023-03-26T00:26:37.512Z,96.90
2023-03-26T00:29:06.771Z,96.90
2023-03-26T00:31:34.486Z,96.90
2023-03-26T00:34:03.752Z,96.90
2023-03-26T00:36:31.131Z,96.90
2023-03-26T00:38:58.056Z,96.90
2023-03-26T00:41:26.986Z,97.10
2023-03-26T00:43:57.278Z,97.10
2023-03-26T00:46:26.570Z,97.20
2023-03-26T00:48:54.162Z,97.40
2023-03-26T00:51:22.033Z,97.40
2023-03-26T00:53:50.881Z,97.40
2023-03-26T00:56:18.918Z,97.40
2023-03-26T00:58:47.409Z,97.40
2023-03-26T01:01:21.640Z,97.30
2023-03-26T01:04:04.801Z,97.20
2023-03-26T01:06:37.874Z,97.10
2023-03-26T01:09:17.268Z,97.00
2023-03-26T01:11:45.011Z,97.10
2023-03-26T01:14:26.842Z,97.00
2023-03-26T01:16:57.435Z,96.80
2023-03-26T01:19:38.210Z,96.80
2023-03-26T01:22:11.136Z,96.70
2023-03-26T01:24:39.958Z,96.80
2023-03-26T01:27:42.687Z,96.90
2023-03-26T01:30:33.578Z,97.00
2023-03-26T01:33:30.281Z,97.00
2023-03-26T01:36:05.486Z,97.10
2023-03-26T01:39:09.721Z,97.20
2023-03-26T01:41:47.804Z,97.30
2023-03-26T01:44:31.743Z,97.30
2023-03-26T01:47:01.135Z,97.40
2023-03-26T01:49:29.215Z,97.40
2023-03-26T01:51:58.045Z,97.40
2023-03-26T01:54:28.759Z,97.50
2023-03-26T01:57:24.100Z,97.50
2023-03-26T02:00:29.362Z,97.50
2023-03-26T02:03:19.566Z,97.50
2023-03-26T02:06:07.470Z,97.50
2023-03-26T02:08:41.290Z,97.50
2023-03-26T02:11:13.684Z,97.40
2023-03-26T02:13:45.355Z,97.40
2023-03-26T02:16:16.524Z,97.50
2023-03-26T02:18:51.380Z,97.50
2023-03-26T02:21:22.109Z,97.50
2023-03-26T02:23:57.694Z,97.50
2023-03-26T02:26:25.764Z,97.60
2023-03-26T02:28:58.736Z,97.50
2023-03-26T02:31:26.556Z,97.60
2023-03-26T02:33:55.525Z,97.50
2023-03-26T02:36:27.805Z,97.50
2023-03-26T02:38:58.166Z,97.40
2023-03-26T02:41:25.396Z,97.40
2023-03-26T02:44:06.252Z,97.40
2023-03-26T02:46:59.308Z,97.30
2023-03-26T02:49:45.299Z,97.30
2023-03-26T02:52:18.715Z,97.30
2023-03-26T02:54:47.489Z,97.40
2023-03-26T02:57:17.911Z,97.40
2023-03-26T02:59:50.564Z,97.30
2023-03-26T03:02:38.753Z,97.30
2023-03-26T03:05:26.588Z,97.30
2023-03-26T03:08:06.881Z,97.30
2023-03-26T03:10:37.849Z,97.20
2023-03-26T03:13:18.014Z,97.20
2023-03-26T03:15:44.966Z,97.20
2023-03-26T03:18:11.862Z,97.30
2023-03-26T03:20:38.780Z,97.30
2023-03-26T03:23:05.690Z,97.30
2023-03-26T03:25:33.797Z,97.20
2023-03-26T03:28:00.933Z,97.50
2023-03-26T03:30:27.885Z,97.20
2023-03-26T03:33:19.196Z,97.20
2023-03-26T03:35:50.650Z,97.20
2023-03-26T03:38:19.240Z,97.10
2023-03-26T03:40:49.228Z,97.10
2023-03-26T03:43:17.258Z,97.20
2023-03-26T03:46:04.639Z,97.20
2023-03-26T03:48:39.821Z,97.20
2023-03-26T03:51:08.135Z,97.20
2023-03-26T03:53:50.418Z,97.20
2023-03-26T03:56:29.154Z,97.20
2023-03-26T03:59:17.562Z,97.20
2023-03-26T04:01:46.652Z,97.10
2023-03-26T04:04:24.676Z,97.10
2023-03-26T04:06:57.827Z,97.20
2023-03-26T04:09:27.668Z,97.20
2023-03-26T04:11:58.637Z,97.10
2023-03-26T04:14:42.034Z,97.10
2023-03-26T04:17:16.396Z,97.10
2023-03-26T04:19:45.136Z,97.00
2023-03-26T04:22:14.149Z,97.00
2023-03-26T04:24:54.319Z,96.90
2023-03-26T04:27:32.983Z,96.90
2023-03-26T04:30:20.564Z,96.90
2023-03-26T04:32:54.405Z,96.80
2023-03-26T04:35:21.630Z,96.80
2023-03-26T04:37:54.432Z,96.70
2023-03-26T04:40:39.039Z,96.60
2023-03-26T04:43:24.717Z,96.40
2023-03-26T04:46:18.533Z,96.30
2023-03-26T04:48:52.760Z,96.20
2023-03-26T04:51:25.608Z,96.20
2023-03-26T04:53:57.859Z,96.20
2023-03-26T04:56:53.281Z,96.30
2023-03-26T04:59:35.319Z,96.20
2023-03-26T05:02:06.392Z,96.20
2023-03-26T05:04:45.835Z,96.20
2023-03-26T05:07:20.464Z,96.20
2023-03-26T05:09:50.672Z,96.30
2023-03-26T05:12:23.368Z,96.40
2023-03-26T05:15:04.966Z,96.50
2023-03-26T05:17:48.458Z,96.50
2023-03-26T05:20:27.395Z,96.60
2023-03-26T05:22:54.687Z,96.60
2023-03-26T05:25:28.350Z,96.60
2023-03-26T05:27:56.425Z,96.60
2023-03-26T05:30:27.801Z,96.60
2023-03-26T05:32:59.148Z,96.60
2023-03-26T05:35:31.188Z,96.50
2023-03-26T05:37:58.598Z,96.50
2023-03-26T05:40:26.249Z,96.50
2023-03-26T05:43:00.907Z,96.80
2023-03-26T05:45:37.098Z,96.40
2023-03-26T05:48:26.136Z,96.40
2023-03-26T05:50:57.774Z,96.30
2023-03-26T05:53:28.041Z,96.30
2023-03-26T05:56:13.914Z,96.30
2023-03-26T05:59:01.168Z,96.40
2023-03-26T06:01:47.192Z,96.40
2023-03-26T06:04:32.559Z,96.40
2023-03-26T06:07:20.003Z,96.20
2023-03-26T06:09:59.709Z,96.20
2023-03-26T06:12:26.777Z,96.20
2023-03-26T06:14:53.717Z,96.20
2023-03-26T06:17:30.862Z,96.20
2023-03-26T06:20:12.872Z,96.00
2023-03-26T06:22:42.888Z,95.90
2023-03-26T06:25:33.544Z,95.80
2023-03-26T06:28:16.362Z,95.90
2023-03-26T06:31:02.280Z,95.80
2023-03-26T06:33:36.013Z,95.40
2023-03-26T06:36:03.896Z,95.20
2023-03-26T06:38:30.956Z,95.20
2023-03-26T06:41:06.167Z,95.30
2023-03-26T06:44:05.209Z,95.30
2023-03-26T06:46:50.666Z,95.00
2023-03-26T06:49:46.679Z,95.00
2023-03-26T06:52:28.572Z,94.70
2023-03-26T06:55:23.326Z,94.70
2023-03-26T06:58:06.624Z,94.90
2023-03-26T07:01:02.381Z,95.30
2023-03-26T07:03:47.748Z,95.60
2023-03-26T07:06:33.011Z,96.00
2023-03-26T07:09:18.408Z,96.20
2023-03-26T07:11:47.950Z,96.40
2023-03-26T07:14:41.129Z,96.30
2023-03-26T07:17:17.595Z,96.40
2023-03-26T07:19:50.020Z,96.40
2023-03-26T07:22:23.499Z,96.10
2023-03-26T07:25:14.936Z,96.20
2023-03-26T07:28:27.185Z,96.20
2023-03-26T07:31:34.627Z,95.80
2023-03-26T07:34:47.496Z,94.50
2023-03-26T07:37:59.307Z,94.40
2023-03-26T07:40:50.662Z,94.40
2023-03-26T07:43:53.592Z,94.30
2023-03-26T07:46:37.352Z,93.80
2023-03-26T07:49:17.850Z,93.70
2023-03-26T07:52:01.297Z,93.60
2023-03-26T07:54:46.733Z,93.30
2023-03-26T07:57:48.471Z,93.00
2023-03-26T08:00:39.244Z,93.00
2023-03-26T08:03:36.744Z,93.20
2023-03-26T08:06:37.817Z,93.20
2023-03-26T08:09:23.583Z,92.80
2023-03-26T08:12:45.361Z,92.50
2023-03-26T08:15:37.912Z,92.40
2023-03-26T08:18:49.998Z,92.60
2023-03-26T08:22:26.246Z,92.00
2023-03-26T08:25:17.729Z,92.30
2023-03-26T08:28:15.619Z,91.80
2023-03-26T08:30:43.652Z,92.00
2023-03-26T08:33:19.021Z,92.20
2023-03-26T08:35:46.953Z,91.80
2023-03-26T08:38:18.329Z,91.80
2023-03-26T08:41:10.347Z,91.50
2023-03-26T08:44:17.922Z,91.30
2023-03-26T08:47:23.921Z,90.20
2023-03-26T08:50:09.943Z,90.60
2023-03-26T08:53:39.294Z,91.00
2023-03-26T08:56:24.194Z,91.00
2023-03-26T08:59:51.566Z,90.80
2023-03-26T09:03:00.356Z,90.40
2023-03-26T09:06:06.830Z,90.80
2023-03-26T09:09:21.896Z,90.30
2023-03-26T09:12:01.802Z,89.20
2023-03-26T09:15:04.475Z,89.30
2023-03-26T09:18:05.733Z,89.50
2023-03-26T09:21:18.147Z,88.60
2023-03-26T09:24:50.880Z,87.80
2023-03-26T09:28:16.271Z,87.80
2023-03-26T09:31:58.208Z,89.20
2023-03-26T09:35:35.454Z,86.00
2023-03-26T09:38:42.227Z,86.60
2023-03-26T09:41:35.369Z,85.40
2023-03-26T09:44:44.452Z,86.10
2023-03-26T09:47:50.287Z,84.70
2023-03-26T09:51:00.905Z,85.30
2023-03-26T09:53:50.610Z,85.20
2023-03-26T09:56:49.772Z,83.90
2023-03-26T09:59:47.812Z,81.80
2023-03-26T10:02:53.340Z,82.80
2023-03-26T10:05:45.456Z,81.30
2023-03-26T10:08:32.555Z,81.80
2023-03-26T10:11:13.087Z,82.70
2023-03-26T10:13:52.493Z,83.40
2023-03-26T10:16:49.961Z,82.80
2023-03-26T10:19:59.812Z,82.90
2023-03-26T10:23:01.792Z,82.50
2023-03-26T10:26:15.997Z,81.10
2023-03-26T10:29:08.383Z,81.30
2023-03-26T10:32:17.985Z,80.60
2023-03-26T10:34:59.014Z,81.80
2023-03-26T10:37:47.942Z,81.00
2023-03-26T10:40:42.774Z,80.80
2023-03-26T10:43:39.605Z,80.90
2023-03-26T10:46:39.728Z,81.20
2023-03-26T10:49:39.724Z,80.10
2023-03-26T10:52:16.287Z,79.70
2023-03-26T10:54:56.412Z,79.10
2023-03-26T10:57:45.995Z,78.70
2023-03-26T11:00:28.878Z,78.60
2023-03-26T11:03:45.343Z,77.60
2023-03-26T11:06:48.762Z,78.90
2023-03-26T11:09:34.022Z,76.00
2023-03-26T11:12:28.459Z,77.00
2023-03-26T11:15:23.529Z,74.60
2023-03-26T11:18:20.706Z,74.10
2023-03-26T11:21:19.527Z,75.20
2023-03-26T11:24:25.513Z,74.50
2023-03-26T11:26:58.182Z,75.30
2023-03-26T11:30:03.549Z,75.70
2023-03-26T11:32:57.268Z,75.70
2023-03-26T11:35:44.000Z,76.00
2023-03-26T11:38:27.159Z,74.30
2023-03-26T11:40:56.935Z,75.20
2023-03-26T11:43:50.372Z,75.80
2023-03-26T11:46:21.615Z,75.90
2023-03-26T11:49:16.205Z,75.30
2023-03-26T11:51:47.424Z,75.90
2023-03-26T11:54:15.145Z,74.70
2023-03-26T11:57:05.148Z,73.40
2023-03-26T11:59:58.124Z,74.20
2023-03-26T12:02:35.555Z,74.50
2023-03-26T12:05:17.913Z,72.90
2023-03-26T12:07:49.394Z,72.70
2023-03-26T12:10:39.723Z,72.30
2023-03-26T12:13:21.212Z,71.50
2023-03-26T12:15:48.204Z,72.00
2023-03-26T12:18:26.058Z,70.70
2023-03-26T12:21:25.855Z,71.70
2023-03-26T12:24:04.670Z,70.70
2023-03-26T12:26:42.768Z,71.10
2023-03-26T12:29:17.116Z,71.30
2023-03-26T12:32:04.590Z,71.30
2023-03-26T12:34:35.894Z,69.50
2023-03-26T12:37:05.505Z,69.70
2023-03-26T12:40:09.418Z,71.00
2023-03-26T12:44:47.302Z,71.70
2023-03-26T12:45:24.655Z,73.10
2023-03-26T12:47:58.515Z,70.70
2023-03-26T12:51:01.753Z,70.70
2023-03-26T12:54:03.107Z,70.10
2023-03-26T12:57:11.990Z,70.70
2023-03-26T13:00:16.351Z,69.50
2023-03-26T13:03:12.111Z,70.20
2023-03-26T13:06:10.609Z,70.10
2023-03-26T13:09:12.994Z,70.80
2023-03-26T13:11:49.684Z,71.40
2023-03-26T13:14:35.013Z,71.30
2023-03-26T13:17:37.019Z,71.40
2023-03-26T13:20:30.557Z,70.20
2023-03-26T13:23:23.248Z,70.30
2023-03-26T13:26:18.072Z,70.60
2023-03-26T13:29:26.655Z,70.70
2023-03-26T13:32:20.531Z,69.20
2023-03-26T13:35:19.027Z,68.70
2023-03-26T13:38:09.014Z,68.10
2023-03-26T13:40:45.217Z,69.30
2023-03-26T13:43:53.592Z,68.60
2023-03-26T13:46:41.435Z,68.50
2023-03-26T13:49:08.205Z,67.80
2023-03-26T13:51:57.490Z,66.70
2023-03-26T13:54:55.856Z,66.80
2023-03-26T13:57:37.326Z,66.90
2023-03-26T14:00:14.105Z,67.40
2023-03-26T14:02:44.178Z,67.50
2023-03-26T14:05:31.208Z,65.20
2023-03-26T14:08:21.953Z,66.50
2023-03-26T14:11:07.696Z,66.20
2023-03-26T14:13:55.761Z,65.70
2023-03-26T14:16:37.145Z,66.90
2023-03-26T14:19:50.966Z,67.70
2023-03-26T14:23:12.774Z,67.10
2023-03-26T14:25:59.091Z,68.90
2023-03-26T14:29:18.786Z,67.50
2023-03-26T14:32:16.364Z,65.90
2023-03-26T14:35:20.998Z,66.00
2023-03-26T14:38:39.917Z,66.40
2023-03-26T14:41:24.000Z,66.70
2023-03-26T14:44:21.179Z,66.20
2023-03-26T14:47:10.064Z,65.90
2023-03-26T14:50:04.560Z,66.40
2023-03-26T14:52:48.068Z,64.00
2023-03-26T14:55:48.548Z,65.00
2023-03-26T14:58:41.579Z,65.60
2023-03-26T15:01:26.667Z,66.10
2023-03-26T15:04:30.317Z,66.40
2023-03-26T15:07:21.433Z,66.70
2023-03-26T15:10:16.798Z,67.00
2023-03-26T15:13:27.804Z,66.70
2023-03-26T15:16:49.636Z,66.20
2023-03-26T15:19:53.079Z,65.60
2023-03-26T15:22:43.226Z,66.00
2023-03-26T15:25:51.483Z,66.00
2023-03-26T15:29:05.302Z,66.10
2023-03-26T15:32:03.646Z,66.00
2023-03-26T15:35:09.668Z,65.80
2023-03-26T15:38:08.032Z,67.50
2023-03-26T15:40:59.541Z,68.50
2023-03-26T15:44:22.392Z,68.10
2023-03-26T15:46:37.935Z,68.80
2023-03-26T15:49:52.657Z,68.80
2023-03-26T15:52:36.459Z,68.30
2023-03-26T15:55:31.080Z,68.80
2023-03-26T15:58:26.151Z,69.20
2023-03-26T16:01:38.019Z,68.30
2023-03-26T16:04:38.773Z,68.80
2023-03-26T16:07:48.346Z,69.20
2023-03-26T16:10:40.845Z,70.30
2023-03-26T16:13:17.337Z,70.10
2023-03-26T16:15:55.920Z,70.20
2023-03-26T16:18:36.981Z,70.60
2023-03-26T16:21:32.842Z,71.10
2023-03-26T16:24:02.889Z,71.90
2023-03-26T16:26:53.075Z,71.50
2023-03-26T16:29:28.510Z,71.20
2023-03-26T16:32:15.779Z,71.20
2023-03-26T16:34:55.211Z,71.40
2023-03-26T16:37:50.580Z,71.50
2023-03-26T16:40:17.413Z,71.60
2023-03-26T16:43:02.087Z,71.90
2023-03-26T16:45:50.349Z,71.90
2023-03-26T16:48:30.463Z,71.60
2023-03-26T16:51:34.476Z,71.90
2023-03-26T16:54:28.111Z,72.30
2023-03-26T16:57:17.230Z,72.60
2023-03-26T17:00:16.216Z,73.00
2023-03-26T17:03:13.122Z,73.40
2023-03-26T17:05:58.020Z,74.00
2023-03-26T17:08:54.582Z,73.90
2023-03-26T17:12:00.739Z,73.90
2023-03-26T17:15:07.437Z,73.90
2023-03-26T17:18:01.243Z,74.10
2023-03-26T17:20:43.083Z,74.10
2023-03-26T17:24:15.665Z,75.20
2023-03-26T17:27:28.253Z,74.70
2023-03-26T17:30:51.861Z,74.80
2023-03-26T17:33:26.868Z,75.20
2023-03-26T17:36:21.382Z,75.20
2023-03-26T17:38:48.183Z,75.50
2023-03-26T17:41:55.409Z,75.40
2023-03-26T17:44:42.987Z,76.00
2023-03-26T17:47:39.687Z,75.90
2023-03-26T17:50:24.051Z,76.30
2023-03-26T17:53:03.007Z,76.20
2023-03-26T17:55:33.773Z,76.40
2023-03-26T17:58:23.129Z,76.50
2023-03-26T18:00:56.880Z,76.70
2023-03-26T18:03:34.943Z,76.80
2023-03-26T18:07:01.979Z,77.00
2023-03-26T18:09:45.656Z,77.60
2023-03-26T18:13:03.234Z,77.60
2023-03-26T18:16:15.725Z,77.90
2023-03-26T18:18:58.898Z,78.20
2023-03-26T18:21:38.891Z,78.00
2023-03-26T18:24:16.511Z,78.20
2023-03-26T18:26:48.544Z,78.30
2023-03-26T18:29:29.820Z,78.40
2023-03-26T18:32:00.870Z,78.40
2023-03-26T18:34:32.718Z,78.40
2023-03-26T18:37:11.156Z,78.50
2023-03-26T18:39:38.595Z,78.40
2023-03-26T18:42:06.970Z,78.30
2023-03-26T18:44:39.474Z,78.40
2023-03-26T18:47:09.576Z,78.50
2023-03-26T18:49:36.686Z,78.50
2023-03-26T18:52:03.737Z,78.40
2023-03-26T18:54:35.400Z,78.40
2023-03-26T18:57:21.472Z,78.60
2023-03-26T18:59:54.956Z,78.70
2023-03-26T19:02:22.701Z,78.70
2023-03-26T19:04:52.020Z,79.10
2023-03-26T19:07:25.830Z,79.20
2023-03-26T19:09:56.347Z,79.80
2023-03-26T19:12:33.131Z,79.90
2023-03-26T19:15:13.979Z,80.40
2023-03-26T19:17:46.446Z,80.70
2023-03-26T19:20:21.907Z,80.70
2023-03-26T19:22:49.318Z,80.80
2023-03-26T19:25:39.432Z,81.50
2023-03-26T19:28:22.100Z,81.70
2023-03-26T19:30:55.761Z,81.50
2023-03-26T19:33:24.461Z,81.70
2023-03-26T19:36:15.578Z,81.70
2023-03-26T19:38:49.986Z,82.00
2023-03-26T19:41:36.711Z,81.90
2023-03-26T19:44:21.160Z,82.10
2023-03-26T19:46:53.841Z,82.30
2023-03-26T19:49:41.264Z,82.30
2023-03-26T19:52:34.298Z,82.80
2023-03-26T19:55:15.490Z,83.20
2023-03-26T19:57:43.110Z,83.00
2023-03-26T20:00:15.103Z,83.30
2023-03-26T20:02:45.994Z,83.80
2023-03-26T20:05:28.837Z,84.00
2023-03-26T20:08:06.089Z,84.50
2023-03-26T20:10:35.867Z,84.80
2023-03-26T20:13:02.766Z,84.50
2023-03-26T20:15:33.270Z,84.60
2023-03-26T20:18:00.893Z,84.80
2023-03-26T20:20:27.891Z,84.70
2023-03-26T20:22:55.056Z,84.80
2023-03-26T20:25:33.292Z,84.90
2023-03-26T20:28:00.313Z,85.70
2023-03-26T20:30:37.376Z,85.70
2023-03-26T20:33:12.342Z,85.70
2023-03-26T20:35:41.158Z,85.70
2023-03-26T20:38:09.699Z,85.70
2023-03-26T20:40:38.240Z,85.80
2023-03-26T20:43:12.059Z,86.40
2023-03-26T20:45:39.292Z,86.40
2023-03-26T20:48:07.461Z,86.50
2023-03-26T20:50:35.972Z,86.60
2023-03-26T20:53:05.551Z,86.60
2023-03-26T20:55:32.472Z,86.90
2023-03-26T20:57:59.511Z,87.00
2023-03-26T21:00:26.505Z,86.80
2023-03-26T21:02:56.301Z,86.90
2023-03-26T21:05:26.886Z,87.30
2023-03-26T21:07:59.034Z,87.30
2023-03-26T21:10:31.020Z,87.50
2023-03-26T21:13:13.530Z,87.70
2023-03-26T21:15:40.697Z,88.10
2023-03-26T21:18:08.291Z,88.00
2023-03-26T21:20:37.154Z,88.30
2023-03-26T21:23:25.046Z,88.60
2023-03-26T21:26:25.494Z,89.20
2023-03-26T21:28:52.910Z,89.10
2023-03-26T21:31:24.076Z,89.20
2023-03-26T21:33:51.872Z,89.20
2023-03-26T21:36:19.928Z,89.10
2023-03-26T21:38:47.499Z,89.20
2023-03-26T21:41:23.242Z,89.10
2023-03-26T21:43:52.985Z,89.50
2023-03-26T21:46:20.546Z,89.30
2023-03-26T21:48:47.784Z,89.40
2023-03-26T21:51:15.146Z,89.10
2023-03-26T21:53:42.974Z,89.10
2023-03-26T21:56:46.047Z,88.90
2023-03-26T21:59:31.174Z,89.40
2023-03-26T22:02:29.178Z,89.50
2023-03-26T22:05:04.418Z,89.70
2023-03-26T22:07:43.488Z,89.60
2023-03-26T22:10:10.456Z,90.00
2023-03-26T22:12:37.336Z,90.20
2023-03-26T22:15:04.681Z,90.30
2023-03-26T22:17:32.705Z,90.40
2023-03-26T22:20:01.407Z,90.50
2023-03-26T22:22:28.882Z,90.50
2023-03-26T22:24:55.771Z,90.50
2023-03-26T22:27:22.672Z,90.40
2023-03-26T22:29:49.601Z,90.40
2023-03-26T22:32:16.640Z,90.40
2023-03-26T22:34:44.898Z,90.40
2023-03-26T22:37:11.912Z,90.40
2023-03-26T22:39:38.823Z,90.30
2023-03-26T22:42:05.902Z,90.30
2023-03-26T22:44:32.812Z,90.20
2023-03-26T22:47:01.295Z,90.20
2023-03-26T22:49:30.270Z,90.20
2023-03-26T22:51:57.251Z,90.20
2023-03-26T22:54:24.157Z,90.40
2023-03-26T22:56:52.298Z,90.50
2023-03-26T22:59:19.332Z,90.50
2023-03-26T23:01:46.628Z,90.50
2023-03-26T23:04:30.779Z,90.80
2023-03-26T23:06:58.918Z,91.00
2023-03-26T23:09:25.863Z,90.70
2023-03-26T23:11:52.724Z,90.70
2023-03-26T23:14:19.602Z,90.60
2023-03-26T23:16:46.470Z,90.60
2023-03-26T23:19:13.418Z,90.50
2023-03-26T23:21:40.328Z,90.40
2023-03-26T23:24:07.227Z,90.40
2023-03-26T23:26:49.566Z,90.30
2023-03-26T23:29:17.354Z,90.30
2023-03-26T23:31:44.339Z,90.30
2023-03-26T23:34:13.355Z,90.30
2023-03-26T23:36:41.702Z,90.30
2023-03-26T23:39:09.271Z,90.40
2023-03-26T23:41:36.746Z,90.40
2023-03-26T23:44:04.028Z,90.40
2023-03-26T23:46:34.581Z,90.50
2023-03-26T23:49:03.442Z,90.60
2023-03-26T23:51:31.023Z,90.70
2023-03-26T23:53:58.415Z,90.70
2023-03-26T23:56:27.547Z,90.70
2023-03-26T23:58:55.165Z,90.80
